Time;durP1;ratioP1;P1;durP2;ratioP2;P2;SDS_P1;SDS_P2;PMS_P1;PMS_P2;Temp;Humidity;BMP_temperature;BMP_pressure;BME280_temperature;BME280_humidity;BME280_pressure;Samples;Min_cycle;Max_cycle;Signal;HPM_P1;HPM_P2
2023/09/11 00:00:57;;;;;;;5.45;3.78;;;27.30;40.70;;;;;;6214439;28;20173;-74
2023/09/11 00:03:59;;;;;;;8.80;3.67;;;27.20;40.80;;;;;;6224988;28;20084;-74
2023/09/11 00:07:01;;;;;;;5.57;3.55;;;27.20;41.00;;;;;;6229092;28;20029;-74
2023/09/11 00:10:02;;;;;;;9.15;3.72;;;27.20;41.10;;;;;;6234479;28;20473;-73
2023/09/11 00:13:03;;;;;;;5.32;3.92;;;27.10;41.20;;;;;;6226377;28;20071;-73
2023/09/11 00:16:04;;;;;;;5.82;3.72;;;27.10;41.20;;;;;;6231739;28;20462;-73
2023/09/11 00:19:06;;;;;;;8.52;4.07;;;27.10;41.30;;;;;;6220540;28;20036;-73
2023/09/11 00:22:07;;;;;;;5.80;3.70;;;27.00;41.40;;;;;;6215761;28;20064;-73
2023/09/11 00:25:08;;;;;;;5.65;3.80;;;27.00;41.40;;;;;;6218700;28;20022;-75
2023/09/11 00:28:09;;;;;;;5.53;3.55;;;27.10;41.40;;;;;;6222689;28;20060;-74
2023/09/11 00:31:10;;;;;;;5.70;3.97;;;27.10;41.40;;;;;;6218113;28;20136;-74
2023/09/11 00:34:11;;;;;;;8.07;4.13;;;27.00;41.40;;;;;;6209731;28;20130;-73
2023/09/11 00:37:12;;;;;;;6.15;3.83;;;27.00;41.50;;;;;;6224346;28;20063;-73
2023/09/11 00:40:13;;;;;;;5.47;3.70;;;27.00;41.60;;;;;;6221516;28;20022;-73
2023/09/11 00:43:13;;;;;;;6.65;3.42;;;26.90;41.60;;;;;;6219849;28;20034;-74
2023/09/11 00:46:15;;;;;;;6.65;4.45;;;26.90;41.80;;;;;;6231522;28;20539;-74
2023/09/11 00:49:20;;;;;;;13.30;3.90;;;26.80;41.80;;;;;;6221911;28;20032;-74
2023/09/11 00:52:22;;;;;;;8.88;4.22;;;26.80;41.90;;;;;;6224879;28;20025;-75
2023/09/11 00:55:23;;;;;;;5.47;3.80;;;26.70;41.90;;;;;;6235243;28;20030;-74
2023/09/11 00:58:25;;;;;;;5.25;3.53;;;26.70;42.10;;;;;;6225603;28;20042;-73
2023/09/11 01:01:27;;;;;;;5.95;3.75;;;26.70;42.20;;;;;;6213058;28;20116;-73
2023/09/11 01:04:28;;;;;;;5.88;3.50;;;26.70;42.40;;;;;;6228072;28;20470;-74
2023/09/11 01:07:31;;;;;;;9.13;4.05;;;26.70;42.40;;;;;;6226613;28;20621;-74
2023/09/11 01:10:33;;;;;;;9.85;3.83;;;26.60;42.60;;;;;;6231543;28;20630;-75
2023/09/11 01:13:34;;;;;;;5.05;3.45;;;26.60;42.80;;;;;;6201495;28;20071;-74
2023/09/11 01:17:08;;;;;;;6.10;3.60;;;26.60;43.00;;;;;;6218102;28;20030;-75
2023/09/11 01:20:48;;;;;;;5.35;3.97;;;26.60;43.30;;;;;;6227473;28;20034;-73
2023/09/11 01:24:07;;;;;;;5.68;3.47;;;26.60;43.40;;;;;;6222492;28;20057;-74
2023/09/11 01:27:33;;;;;;;6.00;4.05;;;26.60;43.50;;;;;;6235283;28;20041;-73
2023/09/11 01:30:35;;;;;;;5.05;3.42;;;26.50;43.50;;;;;;6234141;28;20112;-73
2023/09/11 01:33:36;;;;;;;6.40;4.07;;;26.50;43.30;;;;;;6236077;28;20049;-73
2023/09/11 01:36:37;;;;;;;5.40;3.53;;;26.50;43.30;;;;;;6238160;28;20037;-74
2023/09/11 01:39:38;;;;;;;7.00;4.25;;;26.40;43.40;;;;;;6226934;28;20096;-73
2023/09/11 01:42:53;;;;;;;7.22;3.85;;;26.30;43.40;;;;;;6215346;28;20406;-75
2023/09/11 01:45:54;;;;;;;4.97;3.30;;;26.30;43.60;;;;;;6222876;28;20706;-74
2023/09/11 01:48:56;;;;;;;5.60;3.75;;;26.20;43.70;;;;;;6223030;28;20025;-74
2023/09/11 01:51:57;;;;;;;8.85;4.47;;;26.20;43.80;;;;;;6240975;28;20017;-74
2023/09/11 01:54:59;;;;;;;4.93;3.70;;;26.10;43.80;;;;;;6254507;28;20336;-74
2023/09/11 01:58:00;;;;;;;7.38;3.85;;;26.00;43.90;;;;;;6240919;28;20554;-74
2023/09/11 02:01:01;;;;;;;6.55;4.18;;;26.00;44.00;;;;;;6239225;28;20044;-75
2023/09/11 02:04:02;;;;;;;7.88;4.07;;;26.00;44.00;;;;;;6240512;28;20021;-74
2023/09/11 02:07:02;;;;;;;6.97;4.13;;;25.90;44.10;;;;;;6238618;28;20028;-73
2023/09/11 02:10:04;;;;;;;8.00;3.70;;;25.90;44.20;;;;;;6240642;28;20021;-75
2023/09/11 02:13:04;;;;;;;9.48;4.53;;;25.80;44.20;;;;;;6214592;28;20033;-74
2023/09/11 02:16:05;;;;;;;8.80;4.32;;;25.80;44.30;;;;;;6215795;28;20109;-73
2023/09/11 02:19:06;;;;;;;7.47;4.30;;;25.80;44.50;;;;;;6230921;28;20038;-74
2023/09/11 02:22:07;;;;;;;6.05;4.10;;;25.80;44.50;;;;;;6214011;28;20151;-75
2023/09/11 02:25:08;;;;;;;7.38;4.18;;;25.70;44.50;;;;;;6215680;28;20030;-73
2023/09/11 02:28:09;;;;;;;6.78;4.25;;;25.70;44.70;;;;;;6215742;28;20045;-75
2023/09/11 02:31:10;;;;;;;9.05;4.50;;;25.70;44.70;;;;;;6214145;28;20026;-74
2023/09/11 02:34:10;;;;;;;5.88;4.25;;;25.70;44.60;;;;;;6214365;28;20112;-73
2023/09/11 02:37:11;;;;;;;7.13;3.97;;;25.70;44.60;;;;;;6231219;28;20046;-74
2023/09/11 02:40:12;;;;;;;4.18;3.55;;;25.70;44.70;;;;;;6218159;28;20034;-73
2023/09/11 02:43:13;;;;;;;11.32;4.50;;;25.60;44.70;;;;;;6230412;28;20074;-73
2023/09/11 02:46:14;;;;;;;7.35;3.90;;;25.60;44.90;;;;;;6203892;28;20128;-75
2023/09/11 02:49:14;;;;;;;5.45;3.65;;;25.50;44.90;;;;;;6214136;28;20045;-74
2023/09/11 02:52:16;;;;;;;6.70;4.47;;;25.50;45.00;;;;;;6223408;28;20152;-72
2023/09/11 02:55:17;;;;;;;7.95;4.63;;;25.50;45.10;;;;;;6261891;28;20484;-73
2023/09/11 02:58:18;;;;;;;7.65;4.05;;;25.50;45.20;;;;;;6242577;28;20052;-74
2023/09/11 03:01:19;;;;;;;10.32;3.83;;;25.50;45.20;;;;;;6223433;28;20045;-74
2023/09/11 03:04:20;;;;;;;6.30;4.03;;;25.40;45.20;;;;;;6213247;28;20093;-74
2023/09/11 03:07:20;;;;;;;8.70;4.28;;;25.40;45.30;;;;;;6213419;28;20030;-74
2023/09/11 03:10:22;;;;;;;9.63;4.35;;;25.40;45.30;;;;;;6213212;28;20041;-75
2023/09/11 03:13:23;;;;;;;7.05;4.43;;;25.40;45.50;;;;;;6213361;28;20030;-74
2023/09/11 03:16:24;;;;;;;9.00;4.78;;;25.40;45.50;;;;;;6214424;28;20033;-73
2023/09/11 03:19:33;;;;;;;6.70;3.97;;;25.40;45.60;;;;;;6212638;28;20045;-74
2023/09/11 03:22:34;;;;;;;8.38;4.47;;;25.40;45.60;;;;;;6212967;28;20086;-74
2023/09/11 03:25:35;;;;;;;6.28;4.22;;;25.40;46.30;;;;;;6214280;28;20394;-75
2023/09/11 03:28:36;;;;;;;5.60;4.20;;;25.40;45.90;;;;;;6211932;28;20036;-74
2023/09/11 03:31:36;;;;;;;5.90;3.83;;;25.40;45.80;;;;;;6214398;28;20365;-74
2023/09/11 03:34:37;;;;;;;9.02;3.95;;;25.40;46.10;;;;;;6212904;28;20052;-74
2023/09/11 03:37:38;;;;;;;6.15;4.35;;;25.40;46.30;;;;;;6212782;28;20478;-75
2023/09/11 03:40:41;;;;;;;6.90;4.38;;;25.40;46.40;;;;;;6214975;28;20038;-73
2023/09/11 03:43:42;;;;;;;5.32;3.83;;;25.40;46.80;;;;;;6261502;28;20033;-73
2023/09/11 03:46:43;;;;;;;5.80;3.85;;;25.40;46.80;;;;;;6239674;28;20029;-73
2023/09/11 03:49:44;;;;;;;8.25;4.35;;;25.30;46.70;;;;;;6238221;28;20041;-73
2023/09/11 03:52:45;;;;;;;10.45;4.20;;;25.30;46.80;;;;;;6236538;28;20041;-75
2023/09/11 03:55:46;;;;;;;6.68;4.80;;;25.20;47.00;;;;;;6220169;28;20033;-74
2023/09/11 03:58:47;;;;;;;6.85;4.50;;;25.20;47.20;;;;;;6212301;28;20026;-74
2023/09/11 04:01:50;;;;;;;9.23;4.35;;;25.20;47.30;;;;;;6228405;28;20605;-74
2023/09/11 04:04:51;;;;;;;7.13;4.57;;;25.20;47.70;;;;;;6236157;28;20033;-75
2023/09/11 04:07:51;;;;;;;6.28;4.75;;;25.10;47.80;;;;;;6236565;28;20025;-74
2023/09/11 04:10:52;;;;;;;11.25;4.55;;;25.10;48.00;;;;;;6235649;28;20642;-73
2023/09/11 04:13:53;;;;;;;7.38;3.80;;;25.00;48.10;;;;;;6237950;28;20040;-74
2023/09/11 04:16:54;;;;;;;7.60;4.43;;;25.00;48.10;;;;;;6236032;28;20048;-73
2023/09/11 04:19:55;;;;;;;7.60;4.68;;;24.90;48.10;;;;;;6237886;28;20896;-73
2023/09/11 04:22:55;;;;;;;7.97;4.80;;;24.90;48.20;;;;;;6235843;28;20119;-73
2023/09/11 04:25:56;;;;;;;10.27;4.38;;;24.90;48.30;;;;;;6235942;28;20033;-74
2023/09/11 04:28:58;;;;;;;8.27;4.10;;;24.90;48.40;;;;;;6237820;28;20074;-74
2023/09/11 04:31:58;;;;;;;13.10;4.82;;;24.80;48.60;;;;;;6236008;28;20129;-73
2023/09/11 04:34:59;;;;;;;20.05;4.40;;;24.80;48.90;;;;;;6236328;28;20047;-75
2023/09/11 04:38:00;;;;;;;10.15;4.72;;;24.70;49.00;;;;;;6236166;28;20033;-75
2023/09/11 04:41:01;;;;;;;6.78;4.15;;;24.60;49.10;;;;;;6236121;28;20083;-74
2023/09/11 04:44:04;;;;;;;7.05;3.90;;;24.60;49.40;;;;;;6236285;28;20389;-75
2023/09/11 04:47:06;;;;;;;7.93;4.30;;;24.50;49.50;;;;;;6236261;28;20037;-73
2023/09/11 04:50:07;;;;;;;13.13;4.43;;;24.40;49.60;;;;;;6236042;28;20034;-74
2023/09/11 04:53:08;;;;;;;8.52;4.40;;;24.40;49.60;;;;;;6237767;28;20025;-74
2023/09/11 04:56:09;;;;;;;5.25;4.00;;;24.40;49.60;;;;;;6250814;28;20692;-73
2023/09/11 04:59:10;;;;;;;7.95;4.10;;;24.40;49.50;;;;;;6235613;28;20502;-74
2023/09/11 05:02:11;;;;;;;7.50;4.50;;;24.40;49.50;;;;;;6212250;28;20087;-75
2023/09/11 05:05:13;;;;;;;8.13;4.57;;;24.40;49.60;;;;;;6227653;28;20079;-74
2023/09/11 05:08:14;;;;;;;8.02;4.45;;;24.40;49.60;;;;;;6221630;28;20049;-75
2023/09/11 05:11:15;;;;;;;8.57;4.40;;;24.40;49.80;;;;;;6223222;28;20514;-75
2023/09/11 05:14:16;;;;;;;6.63;4.22;;;24.40;49.90;;;;;;6223369;28;20034;-74
2023/09/11 05:17:18;;;;;;;11.32;4.70;;;24.40;50.20;;;;;;6222329;28;20605;-74
2023/09/11 05:20:19;;;;;;;8.98;5.03;;;24.40;50.30;;;;;;6223183;28;20100;-74
2023/09/11 05:23:19;;;;;;;6.10;4.35;;;24.30;50.30;;;;;;6224007;28;20166;-74
2023/09/11 05:26:21;;;;;;;8.40;4.65;;;24.30;50.30;;;;;;6223088;28;20071;-73
2023/09/11 05:29:21;;;;;;;14.73;5.68;;;24.40;50.40;;;;;;6224955;28;20057;-75
2023/09/11 05:32:23;;;;;;;11.85;4.35;;;24.40;50.40;;;;;;6222239;28;20121;-73
2023/09/11 05:35:24;;;;;;;7.78;4.50;;;24.40;50.30;;;;;;6223189;28;20038;-73
2023/09/11 05:38:24;;;;;;;8.90;4.60;;;24.50;50.40;;;;;;6224034;28;20045;-74
2023/09/11 05:41:25;;;;;;;7.30;4.38;;;24.50;50.30;;;;;;6230026;28;20090;-75
2023/09/11 05:44:26;;;;;;;10.15;5.40;;;24.40;49.50;;;;;;6240846;28;20040;-73
2023/09/11 05:47:27;;;;;;;11.43;5.60;;;24.40;49.10;;;;;;6229776;28;20021;-73
2023/09/11 05:50:28;;;;;;;15.40;5.35;;;24.30;48.90;;;;;;6237346;28;20370;-74
2023/09/11 05:53:29;;;;;;;8.13;4.70;;;24.20;48.80;;;;;;6255356;28;20029;-74
2023/09/11 05:56:30;;;;;;;9.88;5.28;;;24.40;49.60;;;;;;6231091;28;20042;-74
2023/09/11 05:59:31;;;;;;;10.35;6.03;;;24.30;49.30;;;;;;6262741;28;20053;-74
2023/09/11 06:02:32;;;;;;;6.90;4.75;;;24.40;49.80;;;;;;6265076;28;20036;-74
2023/09/11 06:05:36;;;;;;;7.45;5.13;;;24.40;49.80;;;;;;6264441;28;20036;-73
2023/09/11 06:08:37;;;;;;;9.13;5.22;;;24.40;49.90;;;;;;6265158;28;20568;-74
2023/09/11 06:11:40;;;;;;;8.70;4.75;;;24.40;50.10;;;;;;6237631;28;20129;-73
2023/09/11 06:14:41;;;;;;;9.52;5.47;;;24.40;50.10;;;;;;6215676;28;20036;-76
2023/09/11 06:17:42;;;;;;;10.73;5.65;;;24.50;50.20;;;;;;6215492;28;20034;-71
2023/09/11 06:20:42;;;;;;;10.55;5.15;;;24.50;50.10;;;;;;6215297;28;20064;-76
2023/09/11 06:23:43;;;;;;;8.25;4.90;;;24.60;50.00;;;;;;6214735;28;20060;-74
2023/09/11 06:26:44;;;;;;;11.23;4.82;;;24.60;49.90;;;;;;6215477;28;20107;-75
2023/09/11 06:29:45;;;;;;;10.98;5.60;;;24.70;50.00;;;;;;6232619;28;20030;-74
2023/09/11 06:32:46;;;;;;;8.18;4.90;;;24.70;49.90;;;;;;6239005;28;20083;-74
2023/09/11 06:35:47;;;;;;;11.98;5.30;;;24.70;50.00;;;;;;6237497;28;20053;-74
2023/09/11 06:38:47;;;;;;;11.90;5.13;;;24.70;50.00;;;;;;6239146;28;20029;-76
2023/09/11 06:41:48;;;;;;;13.90;5.32;;;24.80;49.90;;;;;;6237419;28;20037;-74
2023/09/11 06:44:51;;;;;;;15.70;5.95;;;24.80;49.80;;;;;;6237059;28;20029;-74
2023/09/11 06:47:51;;;;;;;20.23;6.80;;;24.90;49.70;;;;;;6239408;28;20033;-74
2023/09/11 06:50:53;;;;;;;9.27;5.22;;;24.90;49.60;;;;;;6237818;28;20056;-75
2023/09/11 06:53:54;;;;;;;9.82;5.68;;;24.90;49.60;;;;;;6239028;28;20110;-75
2023/09/11 06:56:55;;;;;;;10.57;5.25;;;25.00;49.50;;;;;;6237742;28;20253;-75
2023/09/11 06:59:56;;;;;;;16.65;5.90;;;25.00;49.50;;;;;;6238926;28;20034;-75
2023/09/11 07:02:57;;;;;;;7.50;5.35;;;25.00;49.40;;;;;;6237551;28;20037;-74
2023/09/11 07:05:58;;;;;;;7.95;5.00;;;25.10;49.40;;;;;;6236562;28;20064;-75
2023/09/11 07:08:59;;;;;;;12.57;4.90;;;25.10;49.30;;;;;;6238332;28;20125;-75
2023/09/11 07:11:59;;;;;;;20.98;5.30;;;25.20;49.30;;;;;;6222567;28;20061;-74
2023/09/11 07:15:00;;;;;;;10.60;5.38;;;25.30;49.80;;;;;;6228496;28;20033;-74
2023/09/11 07:18:01;;;;;;;15.85;5.43;;;25.40;49.00;;;;;;6213574;28;20025;-74
2023/09/11 07:21:02;;;;;;;11.73;5.50;;;25.50;48.90;;;;;;6213170;28;20114;-75
2023/09/11 07:24:03;;;;;;;12.35;5.40;;;25.60;48.70;;;;;;6213181;28;20034;-73
2023/09/11 07:27:04;;;;;;;8.05;4.82;;;25.70;48.60;;;;;;6216829;28;20103;-73
2023/09/11 07:30:09;;;;;;;8.38;5.13;;;25.80;48.40;;;;;;6219382;28;20179;-74
2023/09/11 07:33:10;;;;;;;16.45;5.40;;;25.90;48.20;;;;;;6213174;28;20082;-73
2023/09/11 07:36:10;;;;;;;12.55;5.40;;;26.00;48.00;;;;;;6211223;28;20036;-74
2023/09/11 07:39:11;;;;;;;7.90;5.00;;;26.10;47.90;;;;;;6212914;28;20065;-74
2023/09/11 07:42:12;;;;;;;10.07;4.68;;;26.20;47.40;;;;;;6224486;28;20037;-75
2023/09/11 07:45:13;;;;;;;11.52;5.07;;;26.30;47.30;;;;;;6237322;28;20161;-72
2023/09/11 07:48:14;;;;;;;12.10;5.75;;;26.40;47.20;;;;;;6237508;28;20108;-74
2023/09/11 07:51:14;;;;;;;11.77;5.43;;;26.40;47.00;;;;;;6237603;28;20126;-72
2023/09/11 07:54:16;;;;;;;10.88;4.78;;;26.50;46.80;;;;;;6250503;28;20078;-74
2023/09/11 07:57:17;;;;;;;11.48;4.95;;;26.60;46.80;;;;;;6260528;28;20025;-75
2023/09/11 08:00:18;;;;;;;12.68;5.43;;;26.80;46.40;;;;;;6260051;28;20037;-73
2023/09/11 08:03:19;;;;;;;12.98;6.55;;;26.90;46.20;;;;;;6261856;28;20128;-73
2023/09/11 08:06:20;;;;;;;11.25;4.90;;;27.00;45.80;;;;;;6259604;28;20579;-74
2023/09/11 08:09:20;;;;;;;8.52;4.57;;;27.00;45.30;;;;;;6261691;28;20151;-73
2023/09/11 08:12:21;;;;;;;5.63;4.05;;;27.10;45.00;;;;;;6224397;28;20044;-74
2023/09/11 08:15:22;;;;;;;11.93;4.70;;;27.20;45.00;;;;;;6210355;28;20149;-74
2023/09/11 08:18:23;;;;;;;10.60;4.88;;;27.30;44.90;;;;;;6212183;28;20136;-73
2023/09/11 08:21:24;;;;;;;9.55;4.88;;;27.30;44.70;;;;;;6210869;28;20045;-74
2023/09/11 08:24:25;;;;;;;13.48;5.60;;;27.40;44.60;;;;;;6254508;28;20060;-74
2023/09/11 08:27:25;;;;;;;10.32;4.78;;;27.40;44.60;;;;;;6261842;28;20068;-74
2023/09/11 08:30:26;;;;;;;7.68;5.28;;;27.40;44.10;;;;;;6243105;28;20076;-74
2023/09/11 08:33:27;;;;;;;9.02;5.25;;;27.40;44.00;;;;;;6261928;28;20127;-75
2023/09/11 08:36:28;;;;;;;9.38;4.82;;;27.60;43.90;;;;;;6261466;28;20041;-74
2023/09/11 08:39:29;;;;;;;8.05;4.90;;;27.70;43.70;;;;;;6240897;28;20091;-73
2023/09/11 08:42:29;;;;;;;8.45;4.85;;;27.80;43.60;;;;;;6236369;28;20113;-74
2023/09/11 08:45:30;;;;;;;9.38;5.18;;;27.90;43.50;;;;;;6234655;28;20048;-74
2023/09/11 08:48:32;;;;;;;14.43;5.28;;;28.00;43.20;;;;;;6236326;28;20029;-73
2023/09/11 08:51:34;;;;;;;9.88;5.13;;;28.20;43.10;;;;;;6236153;28;20091;-73
2023/09/11 08:54:43;;;;;;;10.38;5.45;;;28.20;42.80;;;;;;6252058;28;20029;-72
2023/09/11 08:57:44;;;;;;;6.47;4.65;;;28.30;42.70;;;;;;6260775;28;20037;-74
2023/09/11 09:00:46;;;;;;;8.70;4.95;;;28.40;42.60;;;;;;6258721;28;20033;-73
2023/09/11 09:03:49;;;;;;;8.35;5.15;;;28.40;42.00;;;;;;6259115;28;20040;-74
2023/09/11 09:06:50;;;;;;;6.50;4.60;;;28.50;41.70;;;;;;6258474;28;20537;-73
2023/09/11 09:09:53;;;;;;;15.13;6.10;;;28.60;41.70;;;;;;6260428;28;20516;-74
2023/09/11 09:12:55;;;;;;;7.38;5.22;;;28.70;41.70;;;;;;6237534;28;20382;-74
2023/09/11 09:15:56;;;;;;;11.82;5.50;;;28.80;41.60;;;;;;6234024;28;20045;-72
2023/09/11 09:18:56;;;;;;;12.05;6.55;;;29.00;41.30;;;;;;6235268;28;20029;-75
2023/09/11 09:22:06;;;;;;;12.07;5.65;;;29.10;41.10;;;;;;6235650;28;20026;-73
2023/09/11 09:25:07;;;;;;;9.70;5.45;;;29.20;41.10;;;;;;6235411;28;20040;-73
2023/09/11 09:28:07;;;;;;;10.52;5.13;;;29.30;41.00;;;;;;6239395;28;20347;-73
2023/09/11 09:31:12;;;;;;;6.88;4.45;;;29.40;40.60;;;;;;6238508;28;20123;-73
2023/09/11 09:34:13;;;;;;;10.20;4.95;;;29.40;40.50;;;;;;6240359;28;20059;-74
2023/09/11 09:37:16;;;;;;;8.05;4.20;;;29.30;40.40;;;;;;6239988;28;20128;-75
2023/09/11 09:40:30;;;;;;;7.57;4.80;;;29.40;40.40;;;;;;6238564;28;20123;-75
2023/09/11 09:43:31;;;;;;;13.70;5.20;;;29.30;40.30;;;;;;6240513;28;20037;-74
2023/09/11 09:46:41;;;;;;;9.20;4.75;;;29.40;40.40;;;;;;6238939;28;20048;-75
2023/09/11 09:49:54;;;;;;;6.78;4.57;;;29.40;40.40;;;;;;6240142;28;20033;-75
2023/09/11 09:52:55;;;;;;;8.20;5.07;;;29.50;40.30;;;;;;6222044;28;20029;-74
2023/09/11 09:56:03;;;;;;;9.48;6.30;;;29.60;40.10;;;;;;6239847;28;20033;-75
2023/09/11 09:59:03;;;;;;;14.15;6.18;;;29.70;40.00;;;;;;6238845;28;20052;-74
2023/09/11 10:02:08;;;;;;;10.57;5.78;;;29.80;39.40;;;;;;6240183;28;20025;-73
2023/09/11 10:05:09;;;;;;;11.68;5.13;;;29.90;39.20;;;;;;6239584;28;20029;-74
2023/09/11 10:08:14;;;;;;;11.88;5.90;;;30.10;39.00;;;;;;6238087;28;20025;-74
2023/09/11 10:11:28;;;;;;;9.05;5.18;;;30.20;38.70;;;;;;6230015;28;20052;-74
2023/09/11 10:14:30;;;;;;;8.70;5.28;;;30.30;38.80;;;;;;6215283;28;20064;-76
2023/09/11 10:17:33;;;;;;;8.10;4.65;;;30.40;38.50;;;;;;6238396;28;20108;-74
2023/09/11 10:20:34;;;;;;;7.95;4.32;;;30.60;38.50;;;;;;6239538;28;20029;-75
2023/09/11 10:23:35;;;;;;;21.77;5.25;;;30.70;38.30;;;;;;6239889;28;20372;-76
2023/09/11 10:26:59;;;;;;;16.60;5.80;;;30.80;38.10;;;;;;6239756;28;20045;-75
2023/09/11 10:30:08;;;;;;;10.63;5.00;;;30.90;37.60;;;;;;6239398;28;20033;-75
2023/09/11 10:33:17;;;;;;;8.68;4.63;;;31.00;37.20;;;;;;6238413;28;20025;-75
2023/09/11 10:36:25;;;;;;;10.13;4.38;;;31.10;37.20;;;;;;6238004;28;20100;-75
2023/09/11 10:39:26;;;;;;;15.43;4.85;;;31.40;36.90;;;;;;6239019;28;20037;-75
2023/09/11 10:42:27;;;;;;;9.57;5.30;;;31.70;36.60;;;;;;6238299;28;20033;-76
2023/09/11 10:45:34;;;;;;;8.25;4.78;;;31.90;36.10;;;;;;6239339;28;20390;-76
2023/09/11 10:48:35;;;;;;;10.63;4.55;;;32.20;35.80;;;;;;6238171;28;20230;-75
2023/09/11 10:51:37;;;;;;;13.00;5.10;;;32.50;35.50;;;;;;6237698;28;20094;-75
2023/09/11 10:54:39;;;;;;;13.43;6.00;;;32.90;35.10;;;;;;6257211;28;20025;-75
2023/09/11 10:57:40;;;;;;;8.82;6.18;;;33.10;34.50;;;;;;6264071;28;20036;-75
2023/09/11 11:00:41;;;;;;;24.13;5.03;;;33.30;33.90;;;;;;6261713;28;20036;-76
2023/09/11 11:03:43;;;;;;;7.65;5.20;;;33.50;33.90;;;;;;6263567;28;20025;-76
2023/09/11 11:06:45;;;;;;;6.72;4.88;;;33.70;33.70;;;;;;6263270;28;20040;-76
2023/09/11 11:09:48;;;;;;;7.47;5.05;;;33.90;33.00;;;;;;6245431;28;20055;-76
2023/09/11 11:13:05;;;;;;;7.80;4.82;;;34.10;32.80;;;;;;6237441;28;20030;-76
2023/09/11 11:16:14;;;;;;;11.60;4.43;;;34.30;32.60;;;;;;6239672;28;20042;-77
2023/09/11 11:19:25;;;;;;;6.70;4.35;;;34.50;32.30;;;;;;6239909;28;20107;-77
2023/09/11 11:22:34;;;;;;;8.15;5.05;;;34.70;31.70;;;;;;6237985;28;20597;-76
2023/09/11 11:25:36;;;;;;;6.70;5.00;;;35.00;31.40;;;;;;6237844;28;20159;-76
2023/09/11 11:28:42;;;;;;;8.25;5.20;;;35.20;31.30;;;;;;6238653;28;20025;-77
2023/09/11 11:31:44;;;;;;;12.13;4.85;;;35.40;31.10;;;;;;6238777;28;20132;-75
2023/09/11 11:34:47;;;;;;;5.70;4.30;;;35.70;30.70;;;;;;6239427;28;20037;-76
2023/09/11 11:37:49;;;;;;;6.78;4.15;;;35.90;30.10;;;;;;6237338;28;20044;-77
2023/09/11 11:40:51;;;;;;;8.40;4.60;;;36.30;29.90;;;;;;6236641;28;20041;-74
2023/09/11 11:43:53;;;;;;;6.38;4.88;;;36.70;29.40;;;;;;6238192;28;20099;-75
2023/09/11 11:46:54;;;;;;;5.63;4.30;;;37.00;29.00;;;;;;6236711;28;20033;-76
2023/09/11 11:49:55;;;;;;;9.35;4.47;;;37.30;28.80;;;;;;6235870;28;20040;-76
2023/09/11 11:52:55;;;;;;;9.57;4.28;;;37.60;28.20;;;;;;6223883;28;20066;-75
2023/09/11 11:55:58;;;;;;;7.03;4.40;;;37.80;27.60;;;;;;6262530;28;20110;-74
2023/09/11 11:58:59;;;;;;;13.90;4.80;;;37.90;27.50;;;;;;6262840;28;20075;-75
2023/09/11 12:02:00;;;;;;;7.95;4.57;;;38.00;27.30;;;;;;6260172;28;20383;-75
2023/09/11 12:05:01;;;;;;;7.35;4.72;;;38.20;27.00;;;;;;6261082;28;20077;-75
2023/09/11 12:08:02;;;;;;;5.15;4.45;;;38.20;26.80;;;;;;6252728;28;20522;-75
2023/09/11 12:11:07;;;;;;;13.70;4.82;;;38.50;26.70;;;;;;6236981;28;20029;-74
2023/09/11 12:14:12;;;;;;;10.40;4.07;;;38.90;26.30;;;;;;6235364;28;20048;-76
2023/09/11 12:17:13;;;;;;;6.45;4.50;;;39.40;25.80;;;;;;6236840;28;20044;-75
2023/09/11 12:20:16;;;;;;;6.93;4.30;;;40.00;25.40;;;;;;6237107;28;20029;-75
2023/09/11 12:23:17;;;;;;;6.57;4.00;;;40.50;24.60;;;;;;6235525;28;20033;-75
2023/09/11 12:26:19;;;;;;;9.63;3.65;;;41.00;24.10;;;;;;6235564;28;20057;-75
2023/09/11 12:29:20;;;;;;;6.57;3.60;;;41.50;23.30;;;;;;6236060;28;20211;-75
2023/09/11 12:32:21;;;;;;;6.22;3.97;;;41.90;22.70;;;;;;6235380;28;20068;-76
2023/09/11 12:35:30;;;;;;;5.05;3.30;;;42.30;22.30;;;;;;6237010;28;20061;-74
2023/09/11 12:38:31;;;;;;;6.45;3.40;;;42.70;21.60;;;;;;6236811;28;20033;-74
2023/09/11 12:41:32;;;;;;;3.97;3.28;;;43.00;21.40;;;;;;6236548;28;20123;-74
2023/09/11 12:44:33;;;;;;;7.03;3.55;;;43.30;20.90;;;;;;6236376;28;20025;-74
2023/09/11 12:47:36;;;;;;;5.05;3.28;;;43.60;20.60;;;;;;6234834;28;20406;-75
2023/09/11 12:50:40;;;;;;;9.50;3.50;;;44.00;20.30;;;;;;6236479;28;20370;-75
2023/09/11 12:53:40;;;;;;;9.65;3.58;;;44.40;19.60;;;;;;6247123;28;20044;-74
2023/09/11 12:56:42;;;;;;;4.65;3.50;;;44.60;19.30;;;;;;6261106;28;20029;-75
2023/09/11 12:59:43;;;;;;;11.07;2.97;;;44.70;19.20;;;;;;6261344;28;20040;-76
2023/09/11 13:02:43;;;;;;;6.82;3.25;;;45.00;18.80;;;;;;6265096;28;20075;-75
2023/09/11 13:05:45;;;;;;;4.18;3.15;;;45.00;18.40;;;;;;6243634;28;20030;-74
2023/09/11 13:08:46;;;;;;;5.03;3.20;;;45.10;18.30;;;;;;6240709;28;20037;-74
2023/09/11 13:11:47;;;;;;;3.35;3.05;;;45.50;18.10;;;;;;6226077;28;20036;-75
2023/09/11 13:14:49;;;;;;;5.35;3.22;;;45.90;18.00;;;;;;6217593;28;20056;-74
2023/09/11 13:17:50;;;;;;;7.72;3.03;;;46.00;17.80;;;;;;6217404;28;20045;-75
2023/09/11 13:20:53;;;;;;;4.95;3.33;;;46.10;17.60;;;;;;6217207;28;20101;-74
2023/09/11 13:23:54;;;;;;;5.55;3.63;;;45.70;17.60;;;;;;6217109;28;20439;-74
2023/09/11 13:26:55;;;;;;;6.80;3.38;;;45.60;17.60;;;;;;6216795;28;20041;-73
2023/09/11 13:29:56;;;;;;;5.05;3.58;;;45.60;17.60;;;;;;6216759;28;20034;-75
2023/09/11 13:32:56;;;;;;;7.13;3.30;;;45.70;17.40;;;;;;6216295;28;20042;-72
2023/09/11 13:35:57;;;;;;;12.00;3.40;;;45.80;17.50;;;;;;6216330;28;20125;-73
2023/09/11 13:38:58;;;;;;;4.32;2.90;;;46.10;17.40;;;;;;6216095;28;20347;-75
2023/09/11 13:41:59;;;;;;;4.53;3.03;;;46.30;17.20;;;;;;6216021;28;20026;-73
2023/09/11 13:45:00;;;;;;;4.13;3.17;;;45.40;17.40;;;;;;6222848;28;20514;-72
2023/09/11 13:48:01;;;;;;;8.95;3.35;;;44.20;18.30;;;;;;6239043;28;20132;-73
2023/09/11 13:51:02;;;;;;;20.63;3.85;;;43.00;19.10;;;;;;6240892;28;20473;-73
2023/09/11 13:54:03;;;;;;;4.85;3.13;;;41.90;19.90;;;;;;6253478;28;20458;-74
2023/09/11 13:57:04;;;;;;;4.47;3.35;;;40.80;20.50;;;;;;6263150;28;20136;-73
2023/09/11 14:00:05;;;;;;;11.18;3.67;;;40.00;21.20;;;;;;6259168;28;20466;-72
2023/09/11 14:03:12;;;;;;;;;;;39.20;21.90;;;;;;6239596;28;20033;-73
2023/09/11 14:06:13;;;;;;;9.70;3.15;;;38.50;22.40;;;;;;6238744;28;19917;-74
2023/09/11 14:09:15;;;;;;;5.20;2.90;;;38.00;22.90;;;;;;6239828;28;20045;-72
2023/09/11 14:12:16;;;;;;;6.05;3.35;;;37.50;23.40;;;;;;6221711;28;20099;-74
2023/09/11 14:15:16;;;;;;;5.45;3.55;;;37.10;23.90;;;;;;6222142;28;20482;-73
2023/09/11 14:18:18;;;;;;;5.72;3.20;;;36.80;24.40;;;;;;6238466;28;20342;-72
2023/09/11 14:21:18;;;;;;;4.70;3.83;;;36.40;24.80;;;;;;6239788;28;20480;-72
2023/09/11 14:24:19;;;;;;;4.80;3.13;;;36.10;25.10;;;;;;6240029;28;20033;-73
2023/09/11 14:27:20;;;;;;;8.52;3.35;;;35.90;25.40;;;;;;6239218;28;20364;-72
2023/09/11 14:30:21;;;;;;;8.25;3.40;;;35.70;25.80;;;;;;6239651;28;20026;-72
2023/09/11 14:33:22;;;;;;;4.45;3.15;;;35.60;26.00;;;;;;6239904;28;20038;-75
2023/09/11 14:36:23;;;;;;;5.85;3.40;;;35.50;26.20;;;;;;6238325;28;20033;-73
2023/09/11 14:39:23;;;;;;;4.47;3.40;;;35.40;26.30;;;;;;6237697;28;20087;-71
2023/09/11 14:42:24;;;;;;;6.07;3.38;;;35.30;26.40;;;;;;6237794;28;20045;-73
2023/09/11 14:45:25;;;;;;;4.80;3.25;;;35.20;26.60;;;;;;6238824;28;20191;-71
2023/09/11 14:48:26;;;;;;;4.13;3.20;;;35.10;26.80;;;;;;6238534;28;20061;-72
2023/09/11 14:51:27;;;;;;;11.10;3.45;;;34.90;26.90;;;;;;6238578;28;20120;-71
2023/09/11 14:54:28;;;;;;;6.25;3.35;;;34.80;27.10;;;;;;6253040;28;20029;-71
2023/09/11 14:57:28;;;;;;;10.05;3.47;;;34.80;27.30;;;;;;6247326;28;20199;-73
2023/09/11 15:00:29;;;;;;;3.70;3.20;;;34.70;27.30;;;;;;6236951;28;20056;-73
2023/09/11 15:03:30;;;;;;;5.13;3.50;;;34.70;27.50;;;;;;6236560;28;20080;-73
2023/09/11 15:06:31;;;;;;;5.43;3.15;;;34.60;27.50;;;;;;6237978;28;20148;-72
2023/09/11 15:09:31;;;;;;;4.28;3.13;;;34.60;27.80;;;;;;6237636;28;20037;-72
2023/09/11 15:12:34;;;;;;;6.22;3.30;;;34.60;27.80;;;;;;6236369;28;20022;-71
2023/09/11 15:15:35;;;;;;;8.98;3.45;;;34.60;27.80;;;;;;6219792;28;20029;-72
2023/09/11 15:18:36;;;;;;;7.47;3.75;;;34.60;27.80;;;;;;6236826;28;20149;-73
2023/09/11 15:21:37;;;;;;;6.47;3.50;;;34.50;27.80;;;;;;6235933;28;20045;-73
2023/09/11 15:24:37;;;;;;;5.03;2.80;;;34.50;27.80;;;;;;6237005;28;20029;-73
2023/09/11 15:27:38;;;;;;;5.53;3.33;;;34.50;27.80;;;;;;6238681;28;20033;-75
2023/09/11 15:30:39;;;;;;;3.63;2.90;;;34.60;27.80;;;;;;6238325;28;20087;-74
2023/09/11 15:33:40;;;;;;;5.15;3.15;;;34.60;27.80;;;;;;6238382;28;20032;-74
2023/09/11 15:36:41;;;;;;;4.22;3.33;;;34.60;27.80;;;;;;6238428;28;20128;-74
2023/09/11 15:39:42;;;;;;;5.78;3.60;;;34.60;27.80;;;;;;6237283;28;20144;-75
2023/09/11 15:42:45;;;;;;;6.25;2.97;;;34.50;27.80;;;;;;6238141;28;20081;-74
2023/09/11 15:45:45;;;;;;;8.57;3.53;;;34.50;27.80;;;;;;6235682;28;20136;-74